Time;durP1;ratioP1;P1;durP2;ratioP2;P2;SDS_P1;SDS_P2;PMS_P1;PMS_P2;Temp;Humidity;BMP_temperature;BMP_pressure;BME280_temperature;BME280_humidity;BME280_pressure;Samples;Min_cycle;Max_cycle;Signal;HPM_P1;HPM_P2
2023/03/26 00:01:55;;;;;;;31.00;5.47;;;;;;;7.30;100.00;100718.63;4980416;28;20038;-88
2023/03/26 00:04:21;;;;;;;25.48;5.45;;;;;;;7.27;100.00;100715.25;4979805;28;20417;-88
2023/03/26 00:06:49;;;;;;;27.73;5.45;;;;;;;7.23;100.00;100701.56;4963660;28;20060;-88
2023/03/26 00:09:15;;;;;;;28.95;5.43;;;;;;;7.29;100.00;100722.13;4994956;28;20022;-88
2023/03/26 00:11:45;;;;;;;28.02;4.97;;;;;;;7.22;100.00;100714.47;4979387;28;21214;-88
2023/03/26 00:14:17;;;;;;;29.67;6.28;;;;;;;7.03;100.00;100704.38;4962045;28;20037;-88
2023/03/26 00:17:04;;;;;;;31.85;5.22;;;;;;;7.00;100.00;100721.59;4979183;28;20026;-88
2023/03/26 00:19:47;;;;;;;38.17;5.63;;;;;;;6.89;100.00;100700.25;4980265;28;20046;-91
2023/03/26 00:22:15;;;;;;;21.85;4.82;;;;;;;6.84;100.00;100704.59;4994925;28;20066;-91
2023/03/26 00:24:47;;;;;;;23.95;4.35;;;;;;;6.86;100.00;100720.88;4967826;28;20038;-91
2023/03/26 00:27:16;;;;;;;24.00;4.47;;;;;;;6.66;100.00;100695.34;4980910;28;20030;-91
2023/03/26 00:29:47;;;;;;;34.58;5.07;;;;;;;6.67;100.00;100723.66;4978110;28;20027;-90
2023/03/26 00:32:15;;;;;;;21.27;4.10;;;;;;;6.56;100.00;100712.59;4979480;28;20030;-91
2023/03/26 00:34:41;;;;;;;24.13;4.43;;;;;;;6.56;100.00;100717.75;4979086;28;20214;-91
2023/03/26 00:37:07;;;;;;;35.78;4.68;;;;;;;6.45;100.00;100711.84;4981073;28;20030;-90
2023/03/26 00:39:36;;;;;;;17.92;3.75;;;;;;;6.39;100.00;100705.91;4979865;28;20038;-90
2023/03/26 00:42:05;;;;;;;25.27;5.57;;;;;;;6.34;100.00;100698.22;4979813;28;20042;-91
2023/03/26 00:44:33;;;;;;;24.73;4.50;;;;;;;6.16;100.00;100677.78;4979810;28;20633;-91
2023/03/26 00:46:59;;;;;;;23.23;4.35;;;;;;;6.18;100.00;100688.91;4979731;28;20503;-91
2023/03/26 00:49:25;;;;;;;18.27;3.88;;;;;;;6.05;100.00;100675.31;4961514;28;20042;-88
2023/03/26 00:51:51;;;;;;;25.50;4.60;;;;;;;6.09;100.00;100683.84;4979308;28;20053;-88
2023/03/26 00:54:17;;;;;;;28.33;4.13;;;;;;;6.03;100.00;100689.88;4979995;28;20034;-88
2023/03/26 00:56:44;;;;;;;27.70;3.92;;;;;;;5.91;100.00;100675.41;4978928;28;20446;-88
2023/03/26 00:59:10;;;;;;;14.27;3.50;;;;;;;5.93;100.00;100693.41;4979679;28;20498;-87
2023/03/26 01:01:36;;;;;;;20.30;3.38;;;;;;;5.86;100.00;100684.00;4978810;28;20146;-88
2023/03/26 01:04:29;;;;;;;24.85;4.15;;;;;;;5.83;100.00;100690.00;4978186;28;20030;-88
2023/03/26 01:06:57;;;;;;;23.20;4.10;;;;;;;5.78;100.00;100671.19;4967083;28;20072;-88
2023/03/26 01:09:31;;;;;;;18.75;3.33;;;;;;;5.81;100.00;100672.88;4979244;28;20069;-88
2023/03/26 01:11:59;;;;;;;22.30;3.95;;;;;;;5.85;100.00;100667.72;4994917;28;20096;-88
2023/03/26 01:14:27;;;;;;;20.48;3.47;;;;;;;5.83;100.00;100655.72;4978118;28;20062;-88
2023/03/26 01:17:00;;;;;;;29.88;4.10;;;;;;;5.92;100.00;100653.13;4978921;28;20684;-88
2023/03/26 01:19:47;;;;;;;27.75;4.00;;;;;;;6.11;100.00;100664.09;4979026;28;20402;-91
2023/03/26 01:22:18;;;;;;;32.80;4.47;;;;;;;6.15;100.00;100645.19;4961752;28;20123;-91
2023/03/26 01:24:47;;;;;;;24.58;4.22;;;;;;;6.27;100.00;100640.81;4959685;28;20034;-92
2023/03/26 01:27:26;;;;;;;24.58;3.65;;;;;;;6.32;100.00;100638.19;4979632;28;20520;-91
2023/03/26 01:30:02;;;;;;;19.30;3.67;;;;;;;6.31;100.00;100637.31;4979410;28;20487;-90
2023/03/26 01:32:51;;;;;;;14.95;2.80;;;;;;;6.29;100.00;100643.34;4993338;28;20035;-90
2023/03/26 01:35:23;;;;;;;26.85;3.78;;;;;;;6.14;100.00;100613.44;4979160;28;20426;-90
2023/03/26 01:38:30;;;;;;;24.17;4.28;;;;;;;6.13;100.00;100619.50;4977258;28;20038;-89
2023/03/26 01:41:06;;;;;;;23.75;3.50;;;;;;;6.19;100.00;100611.72;4979812;28;20031;-91
2023/03/26 01:43:42;;;;;;;17.63;3.08;;;;;;;6.23;100.00;100613.38;4979701;28;20152;-91
2023/03/26 01:46:10;;;;;;;23.00;3.45;;;;;;;6.07;100.00;100587.81;4977084;28;20050;-90
2023/03/26 01:48:38;;;;;;;21.85;3.75;;;;;;;6.09;100.00;100601.50;4978258;28;20018;-90
2023/03/26 01:51:05;;;;;;;15.35;3.15;;;;;;;5.97;100.00;100593.91;4978082;28;20034;-87
2023/03/26 01:53:34;;;;;;;14.20;3.10;;;;;;;5.82;100.00;100590.56;4978478;28;20022;-87
2023/03/26 01:56:28;;;;;;;26.13;3.78;;;;;;;5.82;100.00;100606.00;4977200;28;20069;-87
2023/03/26 01:59:10;;;;;;;19.65;3.28;;;;;;;5.74;100.00;100599.19;4978183;28;20042;-87
2023/03/26 02:01:44;;;;;;;24.80;3.28;;;;;;;5.68;100.00;100600.09;4977203;28;20038;-87
2023/03/26 02:04:31;;;;;;;22.33;3.92;;;;;;;5.64;100.00;100598.44;4978356;28;20390;-87
2023/03/26 02:07:20;;;;;;;20.17;3.63;;;;;;;5.55;100.00;100590.78;4965410;28;20506;-87
2023/03/26 02:09:59;;;;;;;18.98;4.05;;;;;;;5.56;100.00;100587.34;4977690;28;20483;-85
2023/03/26 02:12:26;;;;;;;20.90;3.88;;;;;;;5.54;100.00;100584.78;4978159;28;20407;-88
2023/03/26 02:14:52;;;;;;;20.65;3.47;;;;;;;5.51;100.00;100589.09;4977683;28;20161;-87
2023/03/26 02:17:18;;;;;;;24.00;4.25;;;;;;;5.42;100.00;100577.16;4978117;28;20382;-87
2023/03/26 02:19:43;;;;;;;22.73;3.50;;;;;;;5.43;100.00;100576.31;4978031;28;20364;-88
2023/03/26 02:22:14;;;;;;;21.35;3.17;;;;;;;5.44;100.00;100572.88;4978272;28;20038;-88
2023/03/26 02:24:43;;;;;;;20.38;4.13;;;;;;;5.41;100.00;100567.75;4977510;28;20637;-87
2023/03/26 02:27:11;;;;;;;17.83;3.20;;;;;;;5.33;100.00;100548.94;4976638;28;20058;-87
2023/03/26 02:29:38;;;;;;;21.25;4.10;;;;;;;5.31;100.00;100554.97;4959667;28;20023;-87
2023/03/26 02:32:05;;;;;;;13.30;2.55;;;;;;;5.36;100.00;100558.38;4977518;28;20029;-87
2023/03/26 02:34:31;;;;;;;20.67;3.65;;;;;;;5.29;100.00;100544.72;4960710;28;20026;-87
2023/03/26 02:36:56;;;;;;;27.27;4.18;;;;;;;5.32;100.00;100560.09;4977655;28;20053;-87
2023/03/26 02:39:23;;;;;;;14.75;3.22;;;;;;;5.27;100.00;100541.28;4978802;28;20273;-87
2023/03/26 02:41:51;;;;;;;11.77;3.35;;;;;;;5.33;100.00;100548.94;4978111;28;20077;-87
2023/03/26 02:44:17;;;;;;;13.88;2.88;;;;;;;5.28;100.00;100545.56;4960127;28;20061;-87
2023/03/26 02:46:42;;;;;;;13.30;3.25;;;;;;;5.29;100.00;100547.28;4976516;28;20030;-87
2023/03/26 02:49:08;;;;;;;14.52;3.22;;;;;;;5.27;100.00;100541.28;4960052;28;20382;-87
2023/03/26 02:51:33;;;;;;;24.67;3.35;;;;;;;5.25;100.00;100539.63;4978192;28;20089;-88
2023/03/26 02:54:00;;;;;;;14.40;3.03;;;;;;;5.27;100.00;100538.72;4978554;28;20407;-88
2023/03/26 02:56:26;;;;;;;22.77;3.30;;;;;;;5.18;100.00;100536.22;4978129;28;20018;-88
2023/03/26 02:58:52;;;;;;;13.95;3.33;;;;;;;5.20;100.00;100526.78;4975789;28;20042;-87
2023/03/26 03:01:17;;;;;;;23.20;3.50;;;;;;;5.20;100.00;100523.34;4992504;28;20032;-87
2023/03/26 03:03:42;;;;;;;17.38;3.00;;;;;;;5.28;100.00;100525.00;4977785;28;20508;-87
2023/03/26 03:06:08;;;;;;;17.88;3.10;;;;;;;5.28;100.00;100516.44;4977141;28;20034;-88
2023/03/26 03:08:33;;;;;;;14.88;3.15;;;;;;;5.21;100.00;100504.50;4977319;28;20014;-88
2023/03/26 03:11:02;;;;;;;11.40;2.70;;;;;;;5.23;100.00;100498.50;4975270;28;20042;-88
2023/03/26 03:13:28;;;;;;;16.65;3.30;;;;;;;5.31;100.00;100501.88;4975433;28;20101;-87
2023/03/26 03:15:54;;;;;;;14.05;2.80;;;;;;;5.30;100.00;100501.88;4977441;28;20030;-87
2023/03/26 03:18:21;;;;;;;15.25;3.17;;;;;;;5.26;100.00;100483.03;4959968;28;20022;-87
2023/03/26 03:20:46;;;;;;;12.95;3.00;;;;;;;5.31;100.00;100499.31;4964415;28;20513;-87
2023/03/26 03:23:12;;;;;;;15.32;2.80;;;;;;;5.41;100.00;100492.34;4978120;28;20066;-87
2023/03/26 03:25:39;;;;;;;19.40;3.17;;;;;;;5.41;100.00;100485.50;4977145;28;20363;-87
2023/03/26 03:28:06;;;;;;;18.10;2.92;;;;;;;5.47;100.00;100479.44;4977659;28;20030;-88
2023/03/26 03:30:32;;;;;;;13.95;2.72;;;;;;;5.40;100.00;100463.22;4978023;28;20536;-90
2023/03/26 03:32:58;;;;;;;17.35;2.78;;;;;;;5.55;100.00;100473.38;4976454;28;20487;-91
2023/03/26 03:35:26;;;;;;;21.50;3.35;;;;;;;5.55;100.00;100469.94;4978612;28;20118;-90
2023/03/26 03:37:52;;;;;;;15.25;2.83;;;;;;;5.64;100.00;100467.31;4981738;28;20165;-90
2023/03/26 03:40:18;;;;;;;20.42;2.83;;;;;;;5.53;100.00;100446.81;4978851;28;20109;-91
2023/03/26 03:42:44;;;;;;;26.70;3.20;;;;;;;5.71;100.00;100468.09;4982083;28;20023;-90
2023/03/26 03:45:10;;;;;;;27.70;3.50;;;;;;;5.75;100.00;100468.03;4983815;28;20801;-91
2023/03/26 03:47:38;;;;;;;18.17;3.00;;;;;;;5.76;100.00;100451.75;4985495;28;20030;-91
2023/03/26 03:50:04;;;;;;;15.43;2.63;;;;;;;5.81;100.00;100441.41;4986050;28;20022;-91
2023/03/26 03:52:30;;;;;;;18.80;2.88;;;;;;;5.90;100.00;100443.91;4987189;28;20117;-90
2023/03/26 03:54:56;;;;;;;20.52;2.90;;;;;;;5.86;100.00;100435.38;4988119;28;20574;-90
2023/03/26 03:57:22;;;;;;;20.45;2.92;;;;;;;5.95;100.00;100443.00;4986670;28;20057;-91
2023/03/26 03:59:48;;;;;;;21.77;3.30;;;;;;;6.08;100.00;100448.00;4985067;28;20031;-88
2023/03/26 04:02:19;;;;;;;22.25;3.63;;;;;;;6.03;100.00;100424.03;4996226;28;21089;-88
2023/03/26 04:04:48;;;;;;;25.00;3.35;;;;;;;6.15;100.00;100435.03;4981530;28;20026;-87
2023/03/26 04:07:14;;;;;;;25.15;3.50;;;;;;;6.15;100.00;100431.59;4979016;28;20161;-88
2023/03/26 04:09:39;;;;;;;20.42;3.25;;;;;;;6.20;100.00;100425.56;4981279;28;20040;-88
2023/03/26 04:12:05;;;;;;;21.85;3.50;;;;;;;6.22;100.00;100434.09;4979899;28;20506;-88
2023/03/26 04:14:31;;;;;;;16.23;3.28;;;;;;;6.25;100.00;100428.06;4980448;28;20402;-87
2023/03/26 04:16:56;;;;;;;19.45;3.20;;;;;;;6.28;100.00;100423.72;4994742;28;20022;-88
2023/03/26 04:19:21;;;;;;;19.38;3.00;;;;;;;6.33;100.00;100416.81;4967193;28;20033;-88
2023/03/26 04:21:48;;;;;;;21.17;2.90;;;;;;;6.27;100.00;100409.16;4979059;28;20407;-88
2023/03/26 04:24:13;;;;;;;19.30;3.05;;;;;;;6.25;100.00;100404.91;4995196;28;20033;-88
2023/03/26 04:26:40;;;;;;;21.67;3.47;;;;;;;6.28;100.00;100395.41;4980223;28;20038;-88
2023/03/26 04:29:10;;;;;;;13.68;2.78;;;;;;;6.31;100.00;100386.81;4978109;28;20518;-87
2023/03/26 04:31:37;;;;;;;19.58;3.10;;;;;;;6.41;100.00;100400.41;4966834;28;20022;-88
2023/03/26 04:34:13;;;;;;;13.07;2.78;;;;;;;6.32;100.00;100384.22;4979199;28;20586;-88
2023/03/26 04:36:41;;;;;;;13.70;2.78;;;;;;;6.28;100.00;100369.66;4977595;28;20037;-88
2023/03/26 04:39:13;;;;;;;14.65;2.42;;;;;;;6.36;100.00;100374.72;4979825;28;20041;-91
2023/03/26 04:41:39;;;;;;;13.57;3.40;;;;;;;6.42;100.00;100392.63;4978983;28;20117;-91
2023/03/26 04:44:05;;;;;;;17.95;2.85;;;;;;;6.45;100.00;100376.31;4979667;28;20026;-90
2023/03/26 04:46:32;;;;;;;15.90;2.55;;;;;;;6.39;100.00;100366.97;4980325;28;20524;-91
2023/03/26 04:48:58;;;;;;;14.57;2.55;;;;;;;6.40;100.00;100357.50;4978357;28;20022;-91
2023/03/26 04:51:26;;;;;;;16.13;2.60;;;;;;;6.43;100.00;100360.88;4978969;28;20030;-91
2023/03/26 04:53:57;;;;;;;15.57;3.10;;;;;;;6.46;100.00;100362.56;4979407;28;20081;-91
2023/03/26 04:56:34;;;;;;;10.60;2.60;;;;;;;6.48;100.00;100365.97;4979626;28;20513;-91
2023/03/26 04:59:01;;;;;;;12.85;2.50;;;;;;;6.41;100.00;100336.91;4973746;28;20050;-90
2023/03/26 05:01:27;;;;;;;9.55;2.25;;;;;;;6.47;100.00;100338.53;4978092;28;20034;-90
2023/03/26 05:03:53;;;;;;;16.42;2.65;;;;;;;6.44;100.00;100325.69;4962320;28;20093;-91
2023/03/26 05:06:19;;;;;;;17.77;2.97;;;;;;;6.41;100.00;100323.19;4979735;28;20029;-91
2023/03/26 05:08:45;;;;;;;16.45;3.33;;;;;;;6.38;100.00;100313.78;4979490;28;20029;-91
2023/03/26 05:11:10;;;;;;;13.57;3.08;;;;;;;6.39;100.00;100314.63;4994703;28;20022;-91
2023/03/26 05:13:36;;;;;;;13.90;2.90;;;;;;;6.42;100.00;100325.72;4980313;28;20133;-91
2023/03/26 05:16:02;;;;;;;21.33;3.08;;;;;;;6.39;100.00;100315.47;4994171;28;20573;-91
2023/03/26 05:18:28;;;;;;;10.32;2.83;;;;;;;6.46;100.00;100322.22;4993766;28;20037;-90
2023/03/26 05:20:54;;;;;;;10.82;2.63;;;;;;;6.47;100.00;100321.38;4979566;28;20097;-91
2023/03/26 05:23:20;;;;;;;20.60;3.47;;;;;;;6.41;100.00;100312.88;4978956;28;20034;-90
2023/03/26 05:25:46;;;;;;;20.60;2.80;;;;;;;6.40;100.00;100317.19;4961612;28;20022;-90
2023/03/26 05:28:11;;;;;;;10.48;2.83;;;;;;;6.31;100.00;100299.28;4979471;28;20085;-90
2023/03/26 05:30:37;;;;;;;13.38;2.72;;;;;;;6.30;100.00;100298.44;4979581;28;20393;-91
2023/03/26 05:33:03;;;;;;;14.18;2.60;;;;;;;6.32;100.00;100301.84;4979091;28;20125;-90
2023/03/26 05:35:28;;;;;;;13.57;2.75;;;;;;;6.23;100.00;100272.81;4978777;28;20038;-91
2023/03/26 05:37:54;;;;;;;17.67;2.85;;;;;;;6.29;100.00;100283.88;4978799;28;20113;-90
2023/03/26 05:40:20;;;;;;;15.82;2.63;;;;;;;6.24;100.00;100270.22;4978529;28;20027;-88
2023/03/26 05:42:46;;;;;;;11.88;2.63;;;;;;;6.29;100.00;100281.28;4965532;28;20038;-88
2023/03/26 05:45:13;;;;;;;15.73;3.10;;;;;;;6.30;100.00;100279.56;4978461;28;20612;-88
2023/03/26 05:47:39;;;;;;;16.35;2.95;;;;;;;6.39;100.00;100283.72;4976731;28;20129;-88
2023/03/26 05:50:06;;;;;;;14.40;2.72;;;;;;;6.33;100.00;100277.81;4979355;28;20109;-88
2023/03/26 05:52:32;;;;;;;12.65;2.85;;;;;;;6.43;100.00;100282.81;4991712;28;20085;-88
2023/03/26 05:54:57;;;;;;;16.02;3.17;;;;;;;6.41;100.00;100276.84;4965024;28;20030;-88
2023/03/26 05:57:27;;;;;;;18.73;3.35;;;;;;;6.40;100.00;100259.69;4977140;28;20054;-87
2023/03/26 05:59:54;;;;;;;13.68;3.13;;;;;;;6.48;100.00;100271.59;4965286;28;20459;-88
2023/03/26 06:02:19;;;;;;;14.50;3.00;;;;;;;6.50;100.00;100268.97;4959408;28;20137;-88
2023/03/26 06:04:45;;;;;;;15.18;3.13;;;;;;;6.48;100.00;100252.72;4978954;28;20399;-88
2023/03/26 06:07:10;;;;;;;18.60;3.92;;;;;;;6.51;100.00;100250.06;4978479;28;20119;-89
2023/03/26 06:09:38;;;;;;;13.70;3.25;;;;;;;6.60;100.00;100265.38;4978606;28;20109;-91
2023/03/26 06:12:05;;;;;;;12.60;2.92;;;;;;;6.52;100.00;100241.47;4978285;28;20046;-90
2023/03/26 06:14:30;;;;;;;18.55;3.30;;;;;;;6.56;100.00;100243.09;4992692;28;20105;-91
2023/03/26 06:16:56;;;;;;;16.13;3.38;;;;;;;6.62;100.00;100248.16;4976974;28;20176;-90
2023/03/26 06:19:21;;;;;;;17.55;3.40;;;;;;;6.62;100.00;100243.00;4960021;28;20116;-91
2023/03/26 06:21:47;;;;;;;19.52;3.83;;;;;;;6.69;100.00;100254.91;4976272;28;20693;-90
2023/03/26 06:24:15;;;;;;;17.60;3.90;;;;;;;6.64;100.00;100238.69;4992790;28;20088;-91
2023/03/26 06:26:41;;;;;;;10.60;3.03;;;;;;;6.78;100.00;100251.31;4977824;28;20076;-91
2023/03/26 06:29:07;;;;;;;15.32;3.83;;;;;;;6.69;100.00;100234.28;4978008;28;20027;-90
2023/03/26 06:31:35;;;;;;;17.58;3.50;;;;;;;6.75;100.00;100250.47;4993987;28;20034;-93
2023/03/26 06:34:00;;;;;;;12.57;3.90;;;;;;;6.75;100.00;100249.66;4978397;28;20288;-91
2023/03/26 06:36:26;;;;;;;17.75;4.55;;;;;;;6.79;100.00;100247.88;4977046;28;20115;-91
2023/03/26 06:38:51;;;;;;;16.08;3.78;;;;;;;6.75;100.00;100239.34;4993099;28;20034;-91
2023/03/26 06:41:19;;;;;;;17.08;4.10;;;;;;;6.76;100.00;100248.75;4959225;28;20026;-92
2023/03/26 06:43:47;;;;;;;21.25;4.13;;;;;;;6.63;100.00;100231.81;4978507;28;20018;-92
2023/03/26 06:46:16;;;;;;;16.98;3.90;;;;;;;6.66;100.00;100239.50;4976173;28;20038;-91
2023/03/26 06:48:41;;;;;;;22.17;4.00;;;;;;;6.71;100.00;100235.13;4959100;28;20529;-91
2023/03/26 06:51:10;;;;;;;18.27;3.80;;;;;;;6.64;100.00;100228.38;4976679;28;20034;-91
2023/03/26 06:53:38;;;;;;;18.63;3.70;;;;;;;6.74;100.00;100245.38;4965703;28;20541;-91
2023/03/26 06:56:04;;;;;;;19.13;4.00;;;;;;;6.74;100.00;100242.81;4976319;28;20041;-92
2023/03/26 06:58:32;;;;;;;19.83;3.80;;;;;;;6.63;100.00;100226.69;4974593;28;20497;-92
2023/03/26 07:00:59;;;;;;;14.63;3.80;;;;;;;6.64;100.00;100228.38;4978217;28;20194;-91
2023/03/26 07:03:25;;;;;;;20.83;4.00;;;;;;;6.71;100.00;100230.81;4991525;28;20050;-91
2023/03/26 07:05:50;;;;;;;22.10;3.80;;;;;;;6.73;100.00;100243.69;4975608;28;20069;-91
2023/03/26 07:08:16;;;;;;;13.63;3.20;;;;;;;6.66;100.00;100224.06;4975748;28;20023;-93
2023/03/26 07:10:42;;;;;;;14.63;3.80;;;;;;;6.72;100.00;100234.25;4964690;28;20679;-93
2023/03/26 07:13:07;;;;;;;20.63;3.70;;;;;;;6.67;100.00;100218.03;4976035;28;20062;-91
2023/03/26 07:15:33;;;;;;;17.67;3.75;;;;;;;6.64;100.00;100207.78;4965018;28;20061;-91
2023/03/26 07:18:00;;;;;;;23.42;4.20;;;;;;;6.78;100.00;100235.84;4959178;28;20079;-92
2023/03/26 07:20:29;;;;;;;15.98;3.97;;;;;;;6.64;100.00;100207.78;4975835;28;20517;-92
2023/03/26 07:22:58;;;;;;;16.73;3.88;;;;;;;6.69;100.00;100214.53;4981202;28;20026;-91
2023/03/26 07:25:24;;;;;;;13.98;3.58;;;;;;;6.75;100.00;100216.19;4969086;28;20214;-92
2023/03/26 07:28:10;;;;;;;16.55;4.10;;;;;;;6.82;100.00;100222.91;4980636;28;20022;-92
2023/03/26 07:30:45;;;;;;;16.10;4.15;;;;;;;6.80;100.00;100223.81;4982931;28;20696;-91
2023/03/26 07:33:36;;;;;;;20.90;3.63;;;;;;;6.77;100.00;100221.28;4969421;28;20126;-91
2023/03/26 07:36:28;;;;;;;22.55;3.95;;;;;;;6.78;100.00;100220.41;4982619;28;20054;-92
2023/03/26 07:38:59;;;;;;;19.30;3.83;;;;;;;6.81;100.00;100217.78;4979632;28;20085;-92
2023/03/26 07:41:36;;;;;;;18.80;4.03;;;;;;;6.81;100.00;100210.06;4968421;28;20034;-91
2023/03/26 07:44:14;;;;;;;16.80;4.30;;;;;;;6.86;100.00;100214.25;4979530;28;21188;-91
2023/03/26 07:46:43;;;;;;;17.05;4.10;;;;;;;6.73;100.00;100194.75;4979209;28;20185;-91
2023/03/26 07:49:12;;;;;;;18.50;4.00;;;;;;;6.83;100.00;100201.41;4996675;28;20549;-92
2023/03/26 07:51:38;;;;;;;16.80;3.97;;;;;;;6.87;100.00;100200.50;4996306;28;20097;-92
2023/03/26 07:54:04;;;;;;;15.88;3.92;;;;;;;6.92;100.00;100195.25;4969125;28;20045;-92
2023/03/26 07:56:37;;;;;;;21.80;4.30;;;;;;;6.95;100.00;100190.03;4979044;28;20380;-92
2023/03/26 07:59:26;;;;;;;21.85;4.32;;;;;;;7.14;100.00;100212.00;4959044;28;20098;-92
2023/03/26 08:02:13;;;;;;;14.60;4.22;;;;;;;7.11;100.00;100196.56;4974540;28;20037;-92
2023/03/26 08:05:03;;;;;;;26.63;4.85;;;;;;;7.02;100.00;100178.75;4965028;28;20085;-91
2023/03/26 08:07:51;;;;;;;21.15;4.50;;;;;;;7.18;100.00;100207.59;4961562;28;20557;-92
2023/03/26 08:10:46;;;;;;;16.67;4.55;;;;;;;7.20;100.00;100196.41;4962102;28;20035;-91
2023/03/26 08:13:20;;;;;;;22.45;4.63;;;;;;;7.21;100.00;100204.97;4946390;28;20086;-92
2023/03/26 08:16:09;;;;;;;22.92;5.20;;;;;;;7.25;100.00;100201.44;4975453;28;20514;-92
2023/03/26 08:19:07;;;;;;;21.98;5.53;;;;;;;7.14;100.00;100183.63;4964910;28;20399;-91
2023/03/26 08:21:53;;;;;;;21.80;5.38;;;;;;;7.21;100.00;100194.69;4944728;29;20419;-92
2023/03/26 08:24:26;;;;;;;22.10;4.97;;;;;;;7.20;100.00;100198.13;4950484;28;20140;-92
2023/03/26 08:27:26;;;;;;;20.25;5.22;;;;;;;7.22;100.00;100204.09;4961738;28;20034;-92
2023/03/26 08:30:08;;;;;;;26.10;6.10;;;;;;;7.15;100.00;100200.81;4961229;28;20046;-92
2023/03/26 08:32:34;;;;;;;18.48;5.60;;;;;;;6.99;100.00;100179.63;4975375;28;20019;-92
2023/03/26 08:35:00;;;;;;;17.60;5.50;;;;;;;6.92;100.00;100172.91;4964415;28;20042;-92
2023/03/26 08:37:27;;;;;;;20.40;5.22;;;;;;;7.10;100.00;100193.16;4960739;28;20042;-91
2023/03/26 08:39:53;;;;;;;18.17;5.80;;;;;;;7.10;100.00;100182.00;4963859;28;20035;-92
2023/03/26 08:42:27;;;;;;;16.55;5.63;;;;;;;7.30;100.00;100197.06;4975194;28;20033;-91
2023/03/26 08:45:35;;;;;;;18.83;5.85;;;;;;;7.39;100.00;100196.84;4975860;28;20031;-91
2023/03/26 08:48:07;;;;;;;22.48;6.55;;;;;;;7.40;100.00;100199.41;4944271;28;20137;-91
2023/03/26 08:50:57;;;;;;;24.83;7.40;;;;;;;7.48;100.00;100187.22;4975325;28;20129;-91
2023/03/26 08:53:39;;;;;;;21.10;6.88;;;;;;;7.51;100.00;100191.44;4975376;28;20034;-91
2023/03/26 08:56:18;;;;;;;23.00;7.10;;;;;;;7.38;100.00;100169.38;4960835;28;20042;-92
2023/03/26 08:59:07;;;;;;;22.17;7.15;;;;;;;7.52;100.00;100193.13;4974748;28;20165;-91
2023/03/26 09:02:04;;;;;;;24.55;7.40;;;;;;;7.51;100.00;100184.53;4963969;28;20039;-91
2023/03/26 09:04:58;;;;;;;22.75;7.28;;;;;;;7.47;100.00;100182.09;4975345;28;20031;-91
2023/03/26 09:07:39;;;;;;;28.47;7.80;;;;;;;7.41;100.00;100179.63;4975345;28;20038;-90
2023/03/26 09:10:04;;;;;;;24.17;7.50;;;;;;;7.39;100.00;100174.50;4961270;28;20282;-92
2023/03/26 09:13:13;;;;;;;19.77;7.60;;;;;;;7.34;100.00;100170.34;4975249;28;20045;-91
2023/03/26 09:16:07;;;;;;;18.88;7.40;;;;;;;7.33;100.00;100164.31;4974999;28;20062;-91
2023/03/26 09:19:01;;;;;;;28.98;7.80;;;;;;;7.48;100.00;100178.63;4964076;28;20041;-91
2023/03/26 09:22:15;;;;;;;18.02;7.50;;;;;;;7.56;100.00;100174.16;4975076;28;20069;-92
2023/03/26 09:25:14;;;;;;;19.90;7.88;;;;;;;7.56;100.00;100158.69;4975371;28;20018;-92
2023/03/26 09:28:19;;;;;;;18.27;7.72;;;;;;;7.77;100.00;100172.81;4974641;28;20383;-91
2023/03/26 09:31:06;;;;;;;25.42;8.48;;;;;;;7.86;100.00;100168.28;4960208;28;20371;-92
2023/03/26 09:33:41;;;;;;;21.63;7.97;;;;;;;7.98;100.00;100163.72;4958104;28;20133;-92
2023/03/26 09:36:18;;;;;;;22.15;7.10;;;;;;;7.88;100.00;100163.09;4963084;28;20462;-92
2023/03/26 09:38:49;;;;;;;19.42;7.22;;;;;;;7.88;100.00;100152.78;4959005;28;20025;-91
2023/03/26 09:41:42;;;;;;;17.67;7.03;;;;;;;8.04;100.00;100163.56;4974478;28;20376;-91
2023/03/26 09:44:43;;;;;;;28.13;7.78;;;;;;;8.12;100.00;100166.81;4962675;28;20138;-91
2023/03/26 09:47:25;;;;;;;15.70;6.65;;;;;;;8.09;100.00;100162.56;4929857;28;20042;-91
2023/03/26 09:49:59;;;;;;;17.02;5.90;;;;;;;8.13;100.00;100164.19;4973592;28;20478;-91
2023/03/26 09:52:49;;;;;;;11.32;5.97;;;;;;;8.03;100.00;100154.13;4974646;28;20496;-91
2023/03/26 09:55:45;;;;;;;14.38;5.10;;;;;;;8.09;100.00;100160.00;4973333;28;20039;-91
2023/03/26 09:58:41;;;;;;;15.32;4.93;;;;;;;7.90;100.00;100143.28;4969818;28;20054;-91
2023/03/26 10:01:13;;;;;;;9.80;2.95;;;;;;;7.76;100.00;100133.28;4966307;28;20073;-91
2023/03/26 10:04:08;;;;;;;5.47;2.38;;;;;;;7.86;100.00;100175.16;4978610;28;20058;-91
2023/03/26 10:06:51;;;;;;;12.32;3.40;;;;;;;7.82;100.00;100173.56;4977332;28;20041;-92
2023/03/26 10:09:25;;;;;;;12.05;4.43;;;;;;;7.66;100.00;100142.09;4979528;28;20124;-91
2023/03/26 10:12:16;;;;;;;14.35;5.63;;;;;;;7.82;100.00;100168.41;4978857;28;20061;-91
2023/03/26 10:15:17;;;;;;;20.25;6.20;;;;;;;7.88;100.00;100170.81;4977251;28;20041;-91
2023/03/26 10:18:27;;;;;;;14.80;5.70;;;;;;;7.95;100.00;100167.22;4977941;28;20034;-92
2023/03/26 10:20:56;;;;;;;12.70;5.57;;;;;;;7.94;100.00;100148.31;4959914;28;20402;-91
2023/03/26 10:23:56;;;;;;;16.40;6.28;;;;;;;8.13;100.00;100146.13;4978655;28;20024;-91
2023/03/26 10:26:46;;;;;;;18.45;6.25;;;;;;;8.39;100.00;100160.16;4977744;28;20291;-91
2023/03/26 10:29:47;;;;;;;13.95;5.20;;;;;;;8.41;100.00;100148.88;4979088;28;20045;-91
2023/03/26 10:32:36;;;;;;;12.73;4.63;;;;;;;8.61;100.00;100161.25;4967612;28;20116;-91
2023/03/26 10:35:20;;;;;;;18.67;4.82;;;;;;;8.55;100.00;100148.53;4964862;28;20046;-91
2023/03/26 10:37:45;;;;;;;12.25;4.18;;;;;;;8.56;100.00;100166.56;4960695;28;20034;-91
2023/03/26 10:40:16;;;;;;;9.40;3.50;;;;;;;8.41;100.00;100154.03;4976737;28;20034;-91
2023/03/26 10:43:12;;;;;;;6.90;3.10;;;;;;;8.52;100.00;100171.88;4979205;28;20030;-91
2023/03/26 10:46:11;;;;;;;6.88;2.22;;;;;;;8.38;100.00;100177.38;4977305;28;20402;-92
2023/03/26 10:48:52;;;;;;;6.40;2.35;;;;;;;8.17;100.00;100183.03;4965749;28;20026;-91
2023/03/26 10:51:24;;;;;;;4.55;2.40;;;;;;;7.93;100.00;100159.50;4976729;28;20034;-92
2023/03/26 10:54:25;;;;;;;7.85;2.25;;;;;;;7.90;100.00;100164.75;4977223;28;20080;-91
2023/03/26 10:56:54;;;;;;;7.43;2.22;;;;;;;7.89;100.00;100175.09;4982040;28;20030;-91
2023/03/26 10:59:19;;;;;;;5.07;1.80;;;;;;;7.97;100.00;100165.47;4981697;28;20046;-92
2023/03/26 11:02:07;;;;;;;7.68;1.92;;;;;;;7.98;100.00;100168.91;4964214;28;20167;-91
2023/03/26 11:04:48;;;;;;;4.10;1.50;;;;;;;8.06;100.00;100191.03;4969482;28;20085;-92
2023/03/26 11:07:33;;;;;;;6.70;1.90;;;;;;;8.03;100.00;100170.47;4996246;28;20041;-90
2023/03/26 11:10:08;;;;;;;3.53;1.58;;;;;;;8.06;100.00;100187.59;4980594;28;20513;-91
2023/03/26 11:13:20;;;;;;;5.25;2.00;;;;;;;7.96;100.00;100194.72;4981415;28;20042;-91
2023/03/26 11:16:20;;;;;;;5.88;2.38;;;;;;;7.84;100.00;100174.38;4909812;29;20032;-91
2023/03/26 11:19:00;;;;;;;4.55;1.90;;;;;;;7.88;100.00;100204.38;4903853;29;20071;-92
2023/03/26 11:21:41;;;;;;;6.90;2.00;;;;;;;7.78;100.00;100192.59;4969074;28;20034;-92
2023/03/26 11:24:38;;;;;;;5.50;1.90;;;;;;;7.74;100.00;100202.09;4980580;28;20026;-92
2023/03/26 11:27:10;;;;;;;7.20;2.13;;;;;;;7.72;100.00;100211.59;4981847;28;20033;-93
2023/03/26 11:29:39;;;;;;;8.57;2.50;;;;;;;7.74;100.00;100209.84;4996826;28;20026;-91
2023/03/26 11:32:10;;;;;;;6.35;2.40;;;;;;;7.61;100.00;100194.69;4981419;28;20088;-91
2023/03/26 11:34:52;;;;;;;6.20;2.67;;;;;;;7.63;100.00;100193.78;4980597;28;20049;-92
2023/03/26 11:37:30;;;;;;;11.15;2.90;;;;;;;7.67;100.00;100194.53;4982038;28;21040;-92
2023/03/26 11:40:00;;;;;;;8.45;3.30;;;;;;;7.78;100.00;100190.00;4981844;28;20026;-92
2023/03/26 11:42:28;;;;;;;8.30;3.60;;;;;;;7.89;100.00;100191.44;4981478;28;20023;-92
2023/03/26 11:45:05;;;;;;;10.93;4.18;;;;;;;7.96;100.00;100189.56;4968927;28;20041;-91
2023/03/26 11:47:47;;;;;;;10.50;4.28;;;;;;;7.99;100.00;100197.22;4982093;28;20034;-92